sensor_id;sensor_type;location;lat;lon;timestamp;pressure;altitude;pressure_sealevel;temperature;humidity
28004;BME280;15330;51.234;6.754;2023-02-04T00:01:45;102668.31;;;8.05;97.25
28004;BME280;15330;51.234;6.754;2023-02-04T00:04:13;102676.41;;;8.03;97.00
28004;BME280;15330;51.234;6.754;2023-02-04T00:06:39;102676.16;;;7.94;97.44
28004;BME280;15330;51.234;6.754;2023-02-04T00:09:04;102678.41;;;8.00;97.40
28004;BME280;15330;51.234;6.754;2023-02-04T00:11:30;102686.72;;;7.95;97.69
28004;BME280;15330;51.234;6.754;2023-02-04T00:13:56;102692.41;;;7.89;97.66
28004;BME280;15330;51.234;6.754;2023-02-04T00:16:21;102688.31;;;7.98;97.41
28004;BME280;15330;51.234;6.754;2023-02-04T00:18:46;102695.47;;;7.97;97.59
28004;BME280;15330;51.234;6.754;2023-02-04T00:21:12;102707.16;;;7.95;97.53
28004;BME280;15330;51.234;6.754;2023-02-04T00:23:37;102709.66;;;7.98;97.75
28004;BME280;15330;51.234;6.754;2023-02-04T00:26:03;102701.34;;;8.02;97.45
28004;BME280;15330;51.234;6.754;2023-02-04T00:28:28;102695.38;;;7.99;97.78
28004;BME280;15330;51.234;6.754;2023-02-04T00:30:54;102695.00;;;7.91;97.69
28004;BME280;15330;51.234;6.754;2023-02-04T00:33:19;102701.59;;;7.85;97.75
28004;BME280;15330;51.234;6.754;2023-02-04T00:35:44;102702.78;;;7.94;97.84
28004;BME280;15330;51.234;6.754;2023-02-04T00:38:10;102710.50;;;7.98;97.84
28004;BME280;15330;51.234;6.754;2023-02-04T00:40:35;102706.91;;;7.85;97.63
28004;BME280;15330;51.234;6.754;2023-02-04T00:43:01;102708.81;;;7.83;98.11
28004;BME280;15330;51.234;6.754;2023-02-04T00:45:26;102703.94;;;7.90;97.75
28004;BME280;15330;51.234;6.754;2023-02-04T00:47:51;102708.03;;;7.95;97.43
28004;BME280;15330;51.234;6.754;2023-02-04T00:50:17;102705.56;;;7.92;97.74
28004;BME280;15330;51.234;6.754;2023-02-04T00:52:42;102705.47;;;7.94;97.45
28004;BME280;15330;51.234;6.754;2023-02-04T00:55:08;102708.88;;;7.96;97.05
28004;BME280;15330;51.234;6.754;2023-02-04T00:57:34;102710.59;;;7.97;97.40
28004;BME280;15330;51.234;6.754;2023-02-04T01:00:00;102716.13;;;7.94;97.25
28004;BME280;15330;51.234;6.754;2023-02-04T01:02:25;102708.97;;;7.94;97.19
28004;BME280;15330;51.234;6.754;2023-02-04T01:04:50;102719.91;;;7.90;97.40
28004;BME280;15330;51.234;6.754;2023-02-04T01:07:16;102724.41;;;7.89;97.31
28004;BME280;15330;51.234;6.754;2023-02-04T01:09:41;102730.28;;;7.94;97.07
28004;BME280;15330;51.234;6.754;2023-02-04T01:12:07;102724.41;;;7.89;97.32
28004;BME280;15330;51.234;6.754;2023-02-04T01:14:32;102725.16;;;7.91;97.30
28004;BME280;15330;51.234;6.754;2023-02-04T01:16:57;102724.63;;;7.72;97.87
28004;BME280;15330;51.234;6.754;2023-02-04T01:19:23;102728.31;;;7.84;97.95
28004;BME280;15330;51.234;6.754;2023-02-04T01:21:48;102721.09;;;7.86;97.95
28004;BME280;15330;51.234;6.754;2023-02-04T01:24:14;102713.09;;;7.86;97.74
28004;BME280;15330;51.234;6.754;2023-02-04T01:26:39;102722.50;;;7.91;98.15
28004;BME280;15330;51.234;6.754;2023-02-04T01:29:04;102708.06;;;7.81;98.28
28004;BME280;15330;51.234;6.754;2023-02-04T01:31:30;102721.19;;;7.84;98.61
28004;BME280;15330;51.234;6.754;2023-02-04T01:33:58;102734.69;;;7.81;98.50
28004;BME280;15330;51.234;6.754;2023-02-04T01:36:23;102742.69;;;7.81;98.51
28004;BME280;15330;51.234;6.754;2023-02-04T01:38:48;102748.09;;;7.80;98.73
28004;BME280;15330;51.234;6.754;2023-02-04T01:41:15;102751.44;;;7.83;98.87
28004;BME280;15330;51.234;6.754;2023-02-04T01:43:41;102761.84;;;7.73;98.74
28004;BME280;15330;51.234;6.754;2023-02-04T01:46:07;102763.72;;;7.71;98.65
28004;BME280;15330;51.234;6.754;2023-02-04T01:48:32;102759.06;;;7.75;98.65
28004;BME280;15330;51.234;6.754;2023-02-04T01:51:04;102760.03;;;7.74;98.78
28004;BME280;15330;51.234;6.754;2023-02-04T01:53:30;102763.84;;;7.56;98.53
28004;BME280;15330;51.234;6.754;2023-02-04T01:55:57;102758.50;;;7.70;98.73
28004;BME280;15330;51.234;6.754;2023-02-04T01:58:22;102771.91;;;7.68;98.70
28004;BME280;15330;51.234;6.754;2023-02-04T02:00:48;102763.28;;;7.65;98.83
28004;BME280;15330;51.234;6.754;2023-02-04T02:03:13;102764.91;;;7.67;98.72
28004;BME280;15330;51.234;6.754;2023-02-04T02:05:43;102765.09;;;7.64;98.44
28004;BME280;15330;51.234;6.754;2023-02-04T02:08:09;102761.47;;;7.65;98.71
28004;BME280;15330;51.234;6.754;2023-02-04T02:10:37;102762.31;;;7.66;98.50
28004;BME280;15330;51.234;6.754;2023-02-04T02:13:05;102765.56;;;7.57;98.75
28004;BME280;15330;51.234;6.754;2023-02-04T02:15:31;102773.25;;;7.61;98.61
28004;BME280;15330;51.234;6.754;2023-02-04T02:17:56;102781.53;;;7.71;98.59
28004;BME280;15330;51.234;6.754;2023-02-04T02:20:24;102789.59;;;7.69;98.49
28004;BME280;15330;51.234;6.754;2023-02-04T02:25:27;102786.75;;;7.72;98.63
28004;BME280;15330;51.234;6.754;2023-02-04T02:27:53;102789.41;;;7.72;98.26
28004;BME280;15330;51.234;6.754;2023-02-04T02:30:20;102787.81;;;7.70;98.23
28004;BME280;15330;51.234;6.754;2023-02-04T02:32:46;102791.72;;;7.64;98.15
28004;BME280;15330;51.234;6.754;2023-02-04T02:35:13;102792.38;;;7.68;98.31
28004;BME280;15330;51.234;6.754;2023-02-04T02:37:39;102798.53;;;7.68;98.68
28004;BME280;15330;51.234;6.754;2023-02-04T02:40:05;102804.34;;;7.61;98.86
28004;BME280;15330;51.234;6.754;2023-02-04T02:42:31;102805.97;;;7.63;98.79
28004;BME280;15330;51.234;6.754;2023-02-04T02:44:57;102796.88;;;7.67;98.71
28004;BME280;15330;51.234;6.754;2023-02-04T02:47:23;102796.97;;;7.66;98.72
28004;BME280;15330;51.234;6.754;2023-02-04T02:49:50;102800.56;;;7.65;98.72
28004;BME280;15330;51.234;6.754;2023-02-04T02:52:17;102799.97;;;7.60;98.35
28004;BME280;15330;51.234;6.754;2023-02-04T02:54:43;102802.94;;;7.55;98.75
28004;BME280;15330;51.234;6.754;2023-02-04T02:57:15;102802.72;;;7.58;98.78
28004;BME280;15330;51.234;6.754;2023-02-04T02:59:42;102807.03;;;7.61;98.55
28004;BME280;15330;51.234;6.754;2023-02-04T03:02:08;102797.03;;;7.64;98.83
28004;BME280;15330;51.234;6.754;2023-02-04T03:04:45;102807.50;;;7.53;99.19
28004;BME280;15330;51.234;6.754;2023-02-04T03:07:12;102807.59;;;7.52;98.83
28004;BME280;15330;51.234;6.754;2023-02-04T03:09:38;102808.94;;;7.45;100.00
28004;BME280;15330;51.234;6.754;2023-02-04T03:12:04;102809.31;;;7.53;99.92
28004;BME280;15330;51.234;6.754;2023-02-04T03:14:30;102807.78;;;7.49;99.63
28004;BME280;15330;51.234;6.754;2023-02-04T03:16:56;102817.13;;;7.56;100.00
28004;BME280;15330;51.234;6.754;2023-02-04T03:19:25;102812.06;;;7.51;100.00
28004;BME280;15330;51.234;6.754;2023-02-04T03:21:52;102818.72;;;7.44;100.00
28004;BME280;15330;51.234;6.754;2023-02-04T03:24:19;102816.34;;;7.54;100.00
28004;BME280;15330;51.234;6.754;2023-02-04T03:26:44;102818.16;;;7.53;100.00
28004;BME280;15330;51.234;6.754;2023-02-04T03:29:09;102815.56;;;7.37;100.00
28004;BME280;15330;51.234;6.754;2023-02-04T03:31:35;102812.63;;;7.42;100.00
28004;BME280;15330;51.234;6.754;2023-02-04T03:34:02;102817.19;;;7.40;100.00
28004;BME280;15330;51.234;6.754;2023-02-04T03:36:27;102814.41;;;7.27;100.00
28004;BME280;15330;51.234;6.754;2023-02-04T03:38:53;102825.47;;;7.35;100.00
28004;BME280;15330;51.234;6.754;2023-02-04T03:41:18;102828.88;;;7.37;100.00
28004;BME280;15330;51.234;6.754;2023-02-04T03:43:44;102830.59;;;7.38;100.00
28004;BME280;15330;51.234;6.754;2023-02-04T03:46:09;102836.22;;;7.34;100.00
28004;BME280;15330;51.234;6.754;2023-02-04T03:48:34;102835.53;;;7.30;100.00
28004;BME280;15330;51.234;6.754;2023-02-04T03:51:00;102842.41;;;7.34;100.00
28004;BME280;15330;51.234;6.754;2023-02-04T03:53:25;102836.09;;;7.21;100.00
28004;BME280;15330;51.234;6.754;2023-02-04T03:55:50;102839.53;;;7.23;100.00
28004;BME280;15330;51.234;6.754;2023-02-04T03:58:16;102838.84;;;7.20;100.00
28004;BME280;15330;51.234;6.754;2023-02-04T04:00:41;102834.84;;;7.27;100.00
28004;BME280;15330;51.234;6.754;2023-02-04T04:03:06;102836.16;;;7.20;100.00
28004;BME280;15330;51.234;6.754;2023-02-04T04:05:32;102831.34;;;7.26;100.00
28004;BME280;15330;51.234;6.754;2023-02-04T04:07:57;102830.59;;;7.24;100.00
28004;BME280;15330;51.234;6.754;2023-02-04T04:10:23;102835.59;;;7.15;100.00
28004;BME280;15330;51.234;6.754;2023-02-04T04:12:49;102835.41;;;7.18;100.00
28004;BME280;15330;51.234;6.754;2023-02-04T04:15:14;102832.09;;;7.14;100.00
28004;BME280;15330;51.234;6.754;2023-02-04T04:17:39;102833.50;;;7.20;100.00
28004;BME280;15330;51.234;6.754;2023-02-04T04:20:05;102831.88;;;7.17;100.00
28004;BME280;15330;51.234;6.754;2023-02-04T04:22:30;102840.06;;;7.14;100.00
28004;BME280;15330;51.234;6.754;2023-02-04T04:24:56;102843.28;;;7.05;100.00
28004;BME280;15330;51.234;6.754;2023-02-04T04:27:21;102856.00;;;7.00;100.00
28004;BME280;15330;51.234;6.754;2023-02-04T04:29:46;102852.47;;;6.99;100.00
28004;BME280;15330;51.234;6.754;2023-02-04T04:32:12;102857.72;;;7.01;100.00
28004;BME280;15330;51.234;6.754;2023-02-04T04:34:38;102862.94;;;7.03;100.00
28004;BME280;15330;51.234;6.754;2023-02-04T04:37:03;102870.16;;;7.00;100.00
28004;BME280;15330;51.234;6.754;2023-02-04T04:39:28;102872.34;;;7.08;100.00
28004;BME280;15330;51.234;6.754;2023-02-04T04:41:54;102866.47;;;7.03;100.00
28004;BME280;15330;51.234;6.754;2023-02-04T04:44:19;102864.03;;;7.14;100.00
28004;BME280;15330;51.234;6.754;2023-02-04T04:46:44;102867.50;;;7.00;100.00
28004;BME280;15330;51.234;6.754;2023-02-04T04:49:10;102870.84;;;7.04;100.00
28004;BME280;15330;51.234;6.754;2023-02-04T04:51:35;102872.25;;;7.10;100.00
28004;BME280;15330;51.234;6.754;2023-02-04T04:54:00;102873.50;;;7.04;100.00
28004;BME280;15330;51.234;6.754;2023-02-04T04:56:25;102874.16;;;7.08;100.00
28004;BME280;15330;51.234;6.754;2023-02-04T04:58:51;102884.06;;;7.06;100.00
28004;BME280;15330;51.234;6.754;2023-02-04T05:01:16;102875.47;;;7.00;100.00
28004;BME280;15330;51.234;6.754;2023-02-04T05:03:42;102878.44;;;7.10;100.00
28004;BME280;15330;51.234;6.754;2023-02-04T05:06:07;102876.72;;;7.09;100.00
28004;BME280;15330;51.234;6.754;2023-02-04T05:08:34;102873.19;;;6.94;100.00
28004;BME280;15330;51.234;6.754;2023-02-04T05:11:02;102888.59;;;7.04;100.00
28004;BME280;15330;51.234;6.754;2023-02-04T05:13:28;102888.84;;;7.15;100.00
28004;BME280;15330;51.234;6.754;2023-02-04T05:15:54;102884.91;;;7.50;100.00
28004;BME280;15330;51.234;6.754;2023-02-04T05:18:19;102883.28;;;7.33;100.00
28004;BME280;15330;51.234;6.754;2023-02-04T05:20:44;102892.25;;;7.47;100.00
28004;BME280;15330;51.234;6.754;2023-02-04T05:23:10;102900.88;;;7.50;100.00
28004;BME280;15330;51.234;6.754;2023-02-04T05:25:35;102901.00;;;7.63;100.00
28004;BME280;15330;51.234;6.754;2023-02-04T05:28:00;102901.47;;;7.55;100.00
28004;BME280;15330;51.234;6.754;2023-02-04T05:30:26;102910.19;;;7.87;100.00
28004;BME280;15330;51.234;6.754;2023-02-04T05:32:51;102913.63;;;7.45;100.00
28004;BME280;15330;51.234;6.754;2023-02-04T05:35:16;102908.56;;;7.26;100.00
28004;BME280;15330;51.234;6.754;2023-02-04T05:37:42;102911.78;;;7.31;100.00
28004;BME280;15330;51.234;6.754;2023-02-04T05:40:08;102905.28;;;7.21;100.00
28004;BME280;15330;51.234;6.754;2023-02-04T05:42:33;102914.63;;;7.28;100.00
28004;BME280;15330;51.234;6.754;2023-02-04T05:44:59;102916.97;;;7.19;100.00
28004;BME280;15330;51.234;6.754;2023-02-04T05:47:24;102924.88;;;7.20;100.00
28004;BME280;15330;51.234;6.754;2023-02-04T05:49:49;102924.69;;;7.23;100.00
28004;BME280;15330;51.234;6.754;2023-02-04T05:52:15;102922.50;;;7.16;100.00
28004;BME280;15330;51.234;6.754;2023-02-04T05:54:40;102926.09;;;7.15;100.00
28004;BME280;15330;51.234;6.754;2023-02-04T05:57:06;102938.97;;;7.07;100.00
28004;BME280;15330;51.234;6.754;2023-02-04T05:59:31;102941.75;;;7.05;100.00
28004;BME280;15330;51.234;6.754;2023-02-04T06:01:56;102949.03;;;7.02;100.00
28004;BME280;15330;51.234;6.754;2023-02-04T06:04:22;102941.31;;;6.97;100.00
28004;BME280;15330;51.234;6.754;2023-02-04T06:06:47;102933.56;;;7.08;100.00
28004;BME280;15330;51.234;6.754;2023-02-04T06:09:12;102944.97;;;7.10;100.00
28004;BME280;15330;51.234;6.754;2023-02-04T06:11:38;102939.41;;;7.15;100.00
28004;BME280;15330;51.234;6.754;2023-02-04T06:14:03;102943.59;;;7.19;100.00
28004;BME280;15330;51.234;6.754;2023-02-04T06:16:29;102952.63;;;7.16;100.00
28004;BME280;15330;51.234;6.754;2023-02-04T06:18:54;102952.78;;;7.13;100.00
28004;BME280;15330;51.234;6.754;2023-02-04T06:21:19;102961.97;;;7.23;100.00
28004;BME280;15330;51.234;6.754;2023-02-04T06:23:45;102961.03;;;7.24;100.00
28004;BME280;15330;51.234;6.754;2023-02-04T06:26:11;102956.97;;;7.17;100.00
28004;BME280;15330;51.234;6.754;2023-02-04T06:28:36;102965.06;;;7.16;100.00
28004;BME280;15330;51.234;6.754;2023-02-04T06:31:02;102963.28;;;7.16;100.00
28004;BME280;15330;51.234;6.754;2023-02-04T06:33:27;102952.75;;;7.29;100.00
28004;BME280;15330;51.234;6.754;2023-02-04T06:35:52;102957.28;;;7.27;100.00
28004;BME280;15330;51.234;6.754;2023-02-04T06:38:18;102958.06;;;7.29;100.00
28004;BME280;15330;51.234;6.754;2023-02-04T06:40:44;102957.22;;;7.28;100.00
28004;BME280;15330;51.234;6.754;2023-02-04T06:43:13;102959.53;;;7.34;100.00
28004;BME280;15330;51.234;6.754;2023-02-04T06:45:39;102972.88;;;7.19;100.00
28004;BME280;15330;51.234;6.754;2023-02-04T06:48:04;102975.28;;;7.23;100.00
28004;BME280;15330;51.234;6.754;2023-02-04T06:50:29;102972.03;;;7.92;100.00
28004;BME280;15330;51.234;6.754;2023-02-04T06:52:55;102970.00;;;7.82;100.00
28004;BME280;15330;51.234;6.754;2023-02-04T06:55:20;102973.09;;;8.04;100.00
28004;BME280;15330;51.234;6.754;2023-02-04T06:57:45;102978.13;;;8.23;100.00
28004;BME280;15330;51.234;6.754;2023-02-04T07:00:11;102969.22;;;8.09;99.66
28004;BME280;15330;51.234;6.754;2023-02-04T07:02:37;102974.41;;;8.11;99.50
28004;BME280;15330;51.234;6.754;2023-02-04T07:05:04;102968.44;;;8.22;98.97
28004;BME280;15330;51.234;6.754;2023-02-04T07:07:30;102979.69;;;8.27;98.41
28004;BME280;15330;51.234;6.754;2023-02-04T07:09:55;102983.97;;;8.29;98.34
28004;BME280;15330;51.234;6.754;2023-02-04T07:12:21;102982.06;;;8.31;97.90
28004;BME280;15330;51.234;6.754;2023-02-04T07:14:46;102989.72;;;8.37;97.64
28004;BME280;15330;51.234;6.754;2023-02-04T07:17:11;102996.84;;;8.37;97.70
28004;BME280;15330;51.234;6.754;2023-02-04T07:19:36;102996.75;;;8.38;97.93
28004;BME280;15330;51.234;6.754;2023-02-04T07:22:03;102985.50;;;8.19;98.09
28004;BME280;15330;51.234;6.754;2023-02-04T07:24:28;102995.09;;;8.22;98.71
28004;BME280;15330;51.234;6.754;2023-02-04T07:26:54;102995.84;;;8.24;99.70
28004;BME280;15330;51.234;6.754;2023-02-04T07:29:19;102995.38;;;8.17;98.97
28004;BME280;15330;51.234;6.754;2023-02-04T07:31:45;103004.50;;;7.69;100.00
28004;BME280;15330;51.234;6.754;2023-02-04T07:34:13;103004.63;;;7.67;100.00
28004;BME280;15330;51.234;6.754;2023-02-04T07:36:39;103010.69;;;7.69;100.00
28004;BME280;15330;51.234;6.754;2023-02-04T07:39:06;103011.66;;;7.68;100.00
28004;BME280;15330;51.234;6.754;2023-02-04T07:41:31;103016.47;;;7.32;100.00
28004;BME280;15330;51.234;6.754;2023-02-04T07:43:56;103010.53;;;7.43;100.00
28004;BME280;15330;51.234;6.754;2023-02-04T07:46:22;103017.56;;;7.44;100.00
28004;BME280;15330;51.234;6.754;2023-02-04T07:48:47;103024.78;;;7.42;100.00
28004;BME280;15330;51.234;6.754;2023-02-04T07:51:12;103026.38;;;7.60;100.00
28004;BME280;15330;51.234;6.754;2023-02-04T07:53:38;103025.44;;;7.61;100.00
28004;BME280;15330;51.234;6.754;2023-02-04T07:56:03;103026.56;;;7.87;100.00
28004;BME280;15330;51.234;6.754;2023-02-04T07:58:29;103029.63;;;7.95;100.00
28004;BME280;15330;51.234;6.754;2023-02-04T08:00:54;103032.69;;;8.03;100.00
28004;BME280;15330;51.234;6.754;2023-02-04T08:03:19;103031.81;;;7.88;100.00
28004;BME280;15330;51.234;6.754;2023-02-04T08:05:45;103036.44;;;7.85;100.00
28004;BME280;15330;51.234;6.754;2023-02-04T08:08:10;103037.03;;;7.60;100.00
28004;BME280;15330;51.234;6.754;2023-02-04T08:10:36;103046.72;;;7.61;100.00
28004;BME280;15330;51.234;6.754;2023-02-04T08:13:01;103048.81;;;7.86;100.00
28004;BME280;15330;51.234;6.754;2023-02-04T08:15:26;103054.63;;;7.92;100.00
28004;BME280;15330;51.234;6.754;2023-02-04T08:17:52;103060.13;;;7.89;100.00
28004;BME280;15330;51.234;6.754;2023-02-04T08:20:17;103060.84;;;7.93;100.00
28004;BME280;15330;51.234;6.754;2023-02-04T08:22:43;103069.06;;;7.74;100.00
28004;BME280;15330;51.234;6.754;2023-02-04T08:25:09;103068.81;;;7.79;100.00
28004;BME280;15330;51.234;6.754;2023-02-04T08:27:35;103080.19;;;7.81;100.00
28004;BME280;15330;51.234;6.754;2023-02-04T08:30:01;103077.19;;;7.87;100.00
28004;BME280;15330;51.234;6.754;2023-02-04T08:32:26;103075.09;;;7.92;100.00
28004;BME280;15330;51.234;6.754;2023-02-04T08:34:53;103084.97;;;7.90;100.00
28004;BME280;15330;51.234;6.754;2023-02-04T08:37:18;103085.59;;;7.95;100.00
28004;BME280;15330;51.234;6.754;2023-02-04T08:39:44;103089.59;;;8.02;100.00
28004;BME280;15330;51.234;6.754;2023-02-04T08:42:13;103084.00;;;8.06;100.00
28004;BME280;15330;51.234;6.754;2023-02-04T08:44:39;103081.91;;;8.11;100.00
28004;BME280;15330;51.234;6.754;2023-02-04T08:47:04;103083.44;;;8.16;100.00
28004;BME280;15330;51.234;6.754;2023-02-04T08:49:30;103096.31;;;8.23;100.00
28004;BME280;15330;51.234;6.754;2023-02-04T08:51:55;103098.38;;;8.34;100.00
28004;BME280;15330;51.234;6.754;2023-02-04T08:54:20;103103.53;;;8.21;100.00
28004;BME280;15330;51.234;6.754;2023-02-04T08:56:46;103102.69;;;8.21;100.00
28004;BME280;15330;51.234;6.754;2023-02-04T08:59:11;103107.75;;;8.25;99.98
28004;BME280;15330;51.234;6.754;2023-02-04T09:01:36;103103.28;;;8.26;99.92
28004;BME280;15330;51.234;6.754;2023-02-04T09:04:02;103102.50;;;8.09;99.78
28004;BME280;15330;51.234;6.754;2023-02-04T09:06:27;103100.78;;;8.08;99.72
28004;BME280;15330;51.234;6.754;2023-02-04T09:08:53;103108.22;;;8.18;99.65
28004;BME280;15330;51.234;6.754;2023-02-04T09:11:18;103109.88;;;8.04;100.00
28004;BME280;15330;51.234;6.754;2023-02-04T09:13:43;103115.44;;;8.16;99.54
28004;BME280;15330;51.234;6.754;2023-02-04T09:16:09;103114.41;;;8.18;99.38
28004;BME280;15330;51.234;6.754;2023-02-04T09:18:35;103124.53;;;7.97;99.65
28004;BME280;15330;51.234;6.754;2023-02-04T09:21:00;103123.06;;;8.22;99.89
28004;BME280;15330;51.234;6.754;2023-02-04T09:23:26;103122.97;;;8.39;99.01
28004;BME280;15330;51.234;6.754;2023-02-04T09:25:51;103120.22;;;8.40;98.37
28004;BME280;15330;51.234;6.754;2023-02-04T09:28:16;103122.09;;;8.38;98.14
28004;BME280;15330;51.234;6.754;2023-02-04T09:30:44;103128.13;;;8.56;98.24
28004;BME280;15330;51.234;6.754;2023-02-04T09:33:11;103121.16;;;8.54;97.97
28004;BME280;15330;51.234;6.754;2023-02-04T09:35:37;103125.47;;;8.70;97.57
28004;BME280;15330;51.234;6.754;2023-02-04T09:38:03;103118.31;;;8.85;97.60
28004;BME280;15330;51.234;6.754;2023-02-04T09:40:31;103119.25;;;8.84;97.04
28004;BME280;15330;51.234;6.754;2023-02-04T09:42:59;103116.88;;;8.94;96.56
28004;BME280;15330;51.234;6.754;2023-02-04T09:45:32;103118.91;;;8.90;96.19
28004;BME280;15330;51.234;6.754;2023-02-04T09:47:59;103126.78;;;9.06;95.85
28004;BME280;15330;51.234;6.754;2023-02-04T09:50:28;103132.34;;;8.60;97.05
28004;BME280;15330;51.234;6.754;2023-02-04T09:52:58;103133.56;;;8.83;97.72
28004;BME280;15330;51.234;6.754;2023-02-04T09:55:33;103134.03;;;8.47;97.97
28004;BME280;15330;51.234;6.754;2023-02-04T09:57:59;103140.91;;;8.65;97.94
28004;BME280;15330;51.234;6.754;2023-02-04T10:00:26;103146.63;;;8.73;97.46
28004;BME280;15330;51.234;6.754;2023-02-04T10:02:52;103146.53;;;8.89;96.96
28004;BME280;15330;51.234;6.754;2023-02-04T10:05:23;103149.47;;;8.84;96.46
28004;BME280;15330;51.234;6.754;2023-02-04T10:07:49;103151.38;;;8.82;97.72
28004;BME280;15330;51.234;6.754;2023-02-04T10:10:21;103156.63;;;8.98;97.40
28004;BME280;15330;51.234;6.754;2023-02-04T10:12:50;103155.59;;;9.01;97.28
28004;BME280;15330;51.234;6.754;2023-02-04T10:15:18;103161.22;;;8.82;97.84
28004;BME280;15330;51.234;6.754;2023-02-04T10:18:02;103155.97;;;8.95;97.36
28004;BME280;15330;51.234;6.754;2023-02-04T10:20:29;103153.88;;;9.00;97.13
28004;BME280;15330;51.234;6.754;2023-02-04T10:22:55;103159.03;;;9.03;97.03
28004;BME280;15330;51.234;6.754;2023-02-04T10:25:22;103157.31;;;9.02;96.71
28004;BME280;15330;51.234;6.754;2023-02-04T10:30:40;103160.38;;;8.81;97.44
28004;BME280;15330;51.234;6.754;2023-02-04T10:33:14;103157.19;;;9.03;96.91
28004;BME280;15330;51.234;6.754;2023-02-04T10:35:45;103155.78;;;8.98;96.73
28004;BME280;15330;51.234;6.754;2023-02-04T10:38:10;103156.16;;;9.20;95.92
28004;BME280;15330;51.234;6.754;2023-02-04T10:40:36;103165.06;;;9.47;94.86
28004;BME280;15330;51.234;6.754;2023-02-04T10:43:10;103170.63;;;9.44;95.01
28004;BME280;15330;51.234;6.754;2023-02-04T10:45:38;103172.72;;;9.53;94.68
28004;BME280;15330;51.234;6.754;2023-02-04T10:48:04;103170.31;;;9.49;94.53
28004;BME280;15330;51.234;6.754;2023-02-04T10:50:29;103170.91;;;9.26;94.65
28004;BME280;15330;51.234;6.754;2023-02-04T10:52:59;103160.63;;;9.05;95.25
28004;BME280;15330;51.234;6.754;2023-02-04T10:55:57;103154.44;;;9.19;94.72
28004;BME280;15330;51.234;6.754;2023-02-04T10:58:26;103156.66;;;9.12;95.10
28004;BME280;15330;51.234;6.754;2023-02-04T11:00:52;103157.66;;;9.24;94.36
28004;BME280;15330;51.234;6.754;2023-02-04T11:03:24;103167.13;;;9.71;92.74
28004;BME280;15330;51.234;6.754;2023-02-04T11:05:51;103158.78;;;10.02;91.21
28004;BME280;15330;51.234;6.754;2023-02-04T11:08:22;103152.28;;;10.46;90.86
28004;BME280;15330;51.234;6.754;2023-02-04T11:10:59;103161.91;;;10.09;89.75
28004;BME280;15330;51.234;6.754;2023-02-04T11:13:38;103156.38;;;9.85;90.21
28004;BME280;15330;51.234;6.754;2023-02-04T11:16:33;103162.63;;;9.98;89.68
28004;BME280;15330;51.234;6.754;2023-02-04T11:19:11;103166.91;;;10.01;88.85
28004;BME280;15330;51.234;6.754;2023-02-04T11:26:41;103164.88;;;10.31;88.58
28004;BME280;15330;51.234;6.754;2023-02-04T11:29:28;103165.34;;;10.11;89.08
28004;BME280;15330;51.234;6.754;2023-02-04T11:32:25;103161.34;;;10.30;88.88
28004;BME280;15330;51.234;6.754;2023-02-04T11:34:49;103158.16;;;10.25;89.52
28004;BME280;15330;51.234;6.754;2023-02-04T11:39:57;103158.78;;;10.29;88.99
28004;BME280;15330;51.234;6.754;2023-02-04T11:42:38;103160.00;;;10.76;87.24
28004;BME280;15330;51.234;6.754;2023-02-04T11:47:37;103171.78;;;10.48;87.07
28004;BME280;15330;51.234;6.754;2023-02-04T11:50:12;103162.03;;;10.72;87.55
28004;BME280;15330;51.234;6.754;2023-02-04T11:52:39;103170.50;;;10.66;86.79
28004;BME280;15330;51.234;6.754;2023-02-04T11:55:04;103169.44;;;10.69;85.01
28004;BME280;15330;51.234;6.754;2023-02-04T11:57:37;103159.06;;;10.77;86.30
28004;BME280;15330;51.234;6.754;2023-02-04T12:00:03;103163.97;;;10.83;84.04
28004;BME280;15330;51.234;6.754;2023-02-04T12:02:43;103149.28;;;11.01;83.98
28004;BME280;15330;51.234;6.754;2023-02-04T12:05:13;103167.16;;;10.37;84.73
28004;BME280;15330;51.234;6.754;2023-02-04T12:07:40;103157.63;;;11.09;83.63
28004;BME280;15330;51.234;6.754;2023-02-04T12:12:48;103165.13;;;11.04;83.72
28004;BME280;15330;51.234;6.754;2023-02-04T12:15:21;103167.34;;;11.23;82.67
28004;BME280;15330;51.234;6.754;2023-02-04T12:18:06;103163.66;;;11.00;84.88
28004;BME280;15330;51.234;6.754;2023-02-04T12:20:32;103154.97;;;11.09;82.68
28004;BME280;15330;51.234;6.754;2023-02-04T12:22:57;103161.84;;;10.88;82.32
28004;BME280;15330;51.234;6.754;2023-02-04T12:25:23;103165.44;;;10.49;84.91
28004;BME280;15330;51.234;6.754;2023-02-04T12:27:48;103172.28;;;10.40;84.49
28004;BME280;15330;51.234;6.754;2023-02-04T12:30:14;103164.13;;;10.29;84.97
28004;BME280;15330;51.234;6.754;2023-02-04T12:32:39;103160.31;;;11.09;84.41
28004;BME280;15330;51.234;6.754;2023-02-04T12:35:05;103164.41;;;11.88;81.49
28004;BME280;15330;51.234;6.754;2023-02-04T12:37:30;103172.03;;;12.05;80.59
28004;BME280;15330;51.234;6.754;2023-02-04T12:39:56;103162.84;;;11.72;80.37
28004;BME280;15330;51.234;6.754;2023-02-04T12:42:21;103166.38;;;11.73;79.63
28004;BME280;15330;51.234;6.754;2023-02-04T12:44:47;103171.31;;;11.79;80.56
28004;BME280;15330;51.234;6.754;2023-02-04T12:47:12;103172.94;;;11.20;81.34
28004;BME280;15330;51.234;6.754;2023-02-04T12:49:37;103170.19;;;11.45;81.29
28004;BME280;15330;51.234;6.754;2023-02-04T12:52:04;103179.72;;;10.75;79.93
28004;BME280;15330;51.234;6.754;2023-02-04T12:54:29;103174.88;;;11.30;81.10
28004;BME280;15330;51.234;6.754;2023-02-04T12:56:55;103164.34;;;11.27;80.41
28004;BME280;15330;51.234;6.754;2023-02-04T12:59:23;103169.50;;;11.30;81.34
28004;BME280;15330;51.234;6.754;2023-02-04T13:01:49;103163.38;;;11.41;79.70
28004;BME280;15330;51.234;6.754;2023-02-04T13:04:14;103159.59;;;11.44;79.28
28004;BME280;15330;51.234;6.754;2023-02-04T13:06:40;103166.34;;;11.00;78.99
28004;BME280;15330;51.234;6.754;2023-02-04T13:09:05;103163.41;;;11.16;79.21
28004;BME280;15330;51.234;6.754;2023-02-04T13:11:31;103159.81;;;10.79;79.11